DEHND EDDG-EDDG
Flight info
| Callsign | DEHND |
|---|---|
| Flight time | 0h 7m |
| Altitude | 2000 |
| Route | LOCAL VFR |
| Aircraft | C152/L-SFG/C |
Departure
| Time | 2026-04-15 16:22 |
|---|---|
| Airport | Münster Osnabrück Airport (EDDG) |
Arrival
| Time | 2026-04-15 16:29 |
|---|---|
| Airport | Münster Osnabrück Airport (EDDG) |
| Time | Latitude | Longitude | Altitude | Speed | Heading |
|---|---|---|---|---|---|
| 2026-04-15 16:05 | 52.13154 | 7.68326 | 162 ft | 0 kts | 91° |
| 2026-04-15 16:14 | 52.13154 | 7.68327 | 162 ft | 0 kts | 92° |
| 2026-04-15 16:15 | 52.13178 | 7.68364 | 162 ft | 9 kts | 342° |
| 2026-04-15 16:15 | 52.13207 | 7.68348 | 162 ft | 0 kts | 340° |
| 2026-04-15 16:18 | 52.13214 | 7.68345 | 162 ft | 6 kts | 343° |
| 2026-04-15 16:18 | 52.13256 | 7.68352 | 162 ft | 0 kts | 56° |
| 2026-04-15 16:19 | 52.13256 | 7.68354 | 162 ft | 2 kts | 38° |
| 2026-04-15 16:19 | 52.13272 | 7.68323 | 162 ft | 5 kts | 298° |
| 2026-04-15 16:19 | 52.13307 | 7.68293 | 162 ft | 7 kts | 342° |
| 2026-04-15 16:19 | 52.13325 | 7.68282 | 162 ft | 1 kts | 339° |
| 2026-04-15 16:20 | 52.13326 | 7.68282 | 162 ft | 0 kts | 338° |
| 2026-04-15 16:20 | 52.13334 | 7.68277 | 162 ft | 7 kts | 340° |
| 2026-04-15 16:20 | 52.13396 | 7.68243 | 163 ft | 7 kts | 345° |
| 2026-04-15 16:21 | 52.13407 | 7.68210 | 162 ft | 0 kts | 251° |
| 2026-04-15 16:21 | 52.13380 | 7.68084 | 162 ft | 37 kts | 250° |
| 2026-04-15 16:21 | 52.13256 | 7.67441 | 219 ft | 71 kts | 251° |
| 2026-04-15 16:21 | 52.13133 | 7.66685 | 465 ft | 66 kts | 250° |
| 2026-04-15 16:22 | 52.13021 | 7.65992 | 688 ft | 59 kts | 239° |
| 2026-04-15 16:22 | 52.12798 | 7.65378 | 847 ft | 66 kts | 234° |
| 2026-04-15 16:22 | 52.12413 | 7.65064 | 1017 ft | 71 kts | 167° |
| 2026-04-15 16:22 | 52.11902 | 7.65379 | 994 ft | 85 kts | 161° |
| 2026-04-15 16:23 | 52.11334 | 7.65703 | 1012 ft | 87 kts | 165° |
| 2026-04-15 16:23 | 52.10713 | 7.65973 | 1046 ft | 95 kts | 168° |
| 2026-04-15 16:23 | 52.10335 | 7.66751 | 1126 ft | 102 kts | 91° |
| 2026-04-15 16:23 | 52.10530 | 7.67910 | 1134 ft | 102 kts | 78° |
| 2026-04-15 16:24 | 52.10718 | 7.68993 | 1185 ft | 102 kts | 75° |
| 2026-04-15 16:24 | 52.10969 | 7.70080 | 1231 ft | 102 kts | 71° |
| 2026-04-15 16:24 | 52.11264 | 7.71134 | 1277 ft | 103 kts | 69° |
| 2026-04-15 16:24 | 52.11582 | 7.72207 | 1335 ft | 107 kts | 63° |
| 2026-04-15 16:25 | 52.11700 | 7.73331 | 1384 ft | 100 kts | 103° |
| 2026-04-15 16:25 | 52.11382 | 7.74285 | 1354 ft | 97 kts | 142° |
| 2026-04-15 16:25 | 52.10764 | 7.74679 | 1306 ft | 96 kts | 178° |
| 2026-04-15 16:25 | 52.10143 | 7.74410 | 1377 ft | 92 kts | 213° |
| 2026-04-15 16:26 | 52.09784 | 7.73545 | 1352 ft | 97 kts | 256° |
| 2026-04-15 16:26 | 52.09907 | 7.72503 | 1324 ft | 98 kts | 301° |
| 2026-04-15 16:26 | 52.10485 | 7.71963 | 1340 ft | 101 kts | 355° |
| 2026-04-15 16:26 | 52.11131 | 7.72383 | 1332 ft | 102 kts | 43° |
| 2026-04-15 16:27 | 52.11670 | 7.73061 | 1415 ft | 94 kts | 17° |
| 2026-04-15 16:27 | 52.12318 | 7.72965 | 1381 ft | 97 kts | 334° |
| 2026-04-15 16:27 | 52.12893 | 7.72511 | 1332 ft | 92 kts | 334° |
| 2026-04-15 16:27 | 52.13452 | 7.72065 | 1194 ft | 86 kts | 328° |
| 2026-04-15 16:28 | 52.13889 | 7.71560 | 1049 ft | 69 kts | 298° |
| 2026-04-15 16:28 | 52.13954 | 7.70866 | 842 ft | 62 kts | 253° |
| 2026-04-15 16:28 | 52.13835 | 7.70214 | 591 ft | 60 kts | 246° |
| 2026-04-15 16:28 | 52.13702 | 7.69574 | 333 ft | 59 kts | 245° |
| 2026-04-15 16:29 | 52.13572 | 7.68975 | 170 ft | 50 kts | 245° |
| 2026-04-15 16:29 | 52.13475 | 7.68524 | 162 ft | 44 kts | 249° |
| 2026-04-15 16:29 | 52.13350 | 7.67837 | 225 ft | 74 kts | 250° |
| 2026-04-15 16:29 | 52.13187 | 7.67061 | 495 ft | 66 kts | 246° |
| 2026-04-15 16:30 | 52.13036 | 7.66313 | 654 ft | 71 kts | 247° |
| 2026-04-15 16:30 | 52.12885 | 7.65595 | 913 ft | 66 kts | 241° |
| 2026-04-15 16:30 | 52.12542 | 7.65162 | 1103 ft | 68 kts | 185° |
| 2026-04-15 16:30 | 52.12095 | 7.65381 | 1295 ft | 69 kts | 157° |
| 2026-04-15 16:31 | 52.11619 | 7.65816 | 1324 ft | 85 kts | 155° |
| 2026-04-15 16:31 | 52.11280 | 7.66518 | 1463 ft | 88 kts | 94° |
| 2026-04-15 16:31 | 52.11464 | 7.67509 | 1488 ft | 99 kts | 75° |
| 2026-04-15 16:31 | 52.11684 | 7.68575 | 1496 ft | 99 kts | 75° |
| 2026-04-15 16:32 | 52.11905 | 7.69620 | 1458 ft | 97 kts | 72° |
| 2026-04-15 16:32 | 52.12146 | 7.70636 | 1456 ft | 97 kts | 69° |
| 2026-04-15 16:32 | 52.12437 | 7.71594 | 1475 ft | 94 kts | 64° |
| 2026-04-15 16:32 | 52.12906 | 7.72124 | 1361 ft | 73 kts | 5° |
| 2026-04-15 16:33 | 52.13382 | 7.72012 | 1184 ft | 69 kts | 341° |
| 2026-04-15 16:33 | 52.13816 | 7.71699 | 1017 ft | 68 kts | 312° |
| 2026-04-15 16:33 | 52.13989 | 7.71025 | 833 ft | 64 kts | 258° |
| 2026-04-15 16:33 | 52.13862 | 7.70351 | 625 ft | 64 kts | 246° |
| 2026-04-15 16:34 | 52.13717 | 7.69672 | 338 ft | 63 kts | 249° |
| 2026-04-15 16:34 | 52.13583 | 7.69034 | 172 ft | 53 kts | 246° |
| 2026-04-15 16:34 | 52.13481 | 7.68591 | 161 ft | 37 kts | 250° |
| 2026-04-15 16:34 | 52.13366 | 7.68023 | 162 ft | 74 kts | 250° |
| 2026-04-15 16:35 | 52.13197 | 7.67190 | 327 ft | 79 kts | 246° |
| 2026-04-15 16:35 | 52.13008 | 7.66335 | 509 ft | 78 kts | 244° |
| 2026-04-15 16:35 | 52.12799 | 7.65550 | 717 ft | 76 kts | 240° |
| 2026-04-15 16:35 | 52.12600 | 7.64745 | 868 ft | 79 kts | 244° |
| 2026-04-15 16:36 | 52.12426 | 7.63920 | 1044 ft | 79 kts | 260° |
| 2026-04-15 16:36 | 52.12616 | 7.63052 | 1160 ft | 86 kts | 314° |
| 2026-04-15 16:36 | 52.13056 | 7.62452 | 1350 ft | 77 kts | 307° |
| 2026-04-15 16:36 | 52.13393 | 7.61736 | 1482 ft | 79 kts | 295° |
| 2026-04-15 16:37 | 52.13607 | 7.60909 | 1645 ft | 79 kts | 292° |
| 2026-04-15 16:37 | 52.13885 | 7.60102 | 1752 ft | 83 kts | 304° |
| 2026-04-15 16:37 | 52.14277 | 7.59430 | 1910 ft | 83 kts | 305° |
| 2026-04-15 16:37 | 52.14689 | 7.58698 | 1963 ft | 99 kts | 314° |
| 2026-04-15 16:38 | 52.15262 | 7.57998 | 1939 ft | 105 kts | 326° |
| 2026-04-15 16:38 | 52.15893 | 7.57337 | 1889 ft | 109 kts | 325° |
| 2026-04-15 16:38 | 52.16515 | 7.56658 | 1896 ft | 105 kts | 322° |
| 2026-04-15 16:38 | 52.17075 | 7.55928 | 1918 ft | 103 kts | 313° |
| 2026-04-15 16:39 | 52.17572 | 7.55117 | 1988 ft | 103 kts | 311° |